Los Gatos, CA (95030)

1:14 PM PST on February 12, 2016 (GMT -0800)
Chemeketa Park | | Change Station
CLOSE
Current Station
Personal Weather Station
Location: Los Gatos, CA
Elevation: 1043 ft
Nearby Weather Stations

Elev 1043 ft 37.16 °N, 121.98 °W | Updated 5 minutes ago

Partly Cloudy
Partly Cloudy
65.8 °F
Feels Like 65.8 °F
N
1.1
Wind Variable Wind from WNW
Gusts 4.0 mph

Today
High -- | Low -- °F
--% Chance of Precip.
Yesterday
High -- | Low -- °F
Precip. -- in
Pressure 30.20 in
Visibility 10.0 miles
Clouds Few 4500 ft
Mostly Cloudy 9500 ft
Overcast 16000 ft
Dew Point 52 °F
Humidity 60%
Rainfall 0.00 in
Snow Depth Not available.
7:00 AM 5:44 PM
Waxing Crescent, 23% visible
METAR KSJC 122053Z 30007KT 10SM FEW045 BKN095 OVC160 19/09 A3020 RMK AO2 SLP226 T01890094 58013
Pressure 30.20 in
Visibility 10.0 miles
Clouds Few 4500 ft
Mostly Cloudy 9500 ft
Overcast 16000 ft
Dew Point 52 °F
Humidity 60%
Rainfall 0.00 in
Snow Depth Not available.
7:00 AM 5:44 PM
Waxing Crescent, 23% visible
METAR KSJC 122053Z 30007KT 10SM FEW045 BKN095 OVC160 19/09 A3020 RMK AO2 SLP226 T01890094 58013

10-Day Weather Forecast

Almanac

Astronomy

Feb. 12, 2016 Rise Set
Actual Time
Civil Twilight
Nautical Twilight
Astronomical Twilight
Moon
Length of Visible Light
Length of Day
Tomorrow will be .
, % of the Moon is Illuminated

Today's Extremes

State Highs State Lows

Community

WunderPhotos

Upload Photos

1,892,400 photos uploaded!

WunderBlog® & News

Nearby

Air Quality

  Air Quality AQ Index Pollutant
Not available.

Snow Depth

Station Depth Elevation

Earthquake Activity

City Distance Mag. Time & Date
Minimum magnitude displayed is 2.5.

Coastal Water Temperatures

Place Temperature

Stations

Nearby Weather Stations

Station Location Temp. Windchill Dew Point Humidity Wind Precip. Elev Updated Type
                   

Watches & Warnings

There are currently no watches in effect.